createdAt,value
2018-03-01T00:01:09.578Z,10.02
2018-03-01T00:03:12.177Z,9.60
2018-03-01T00:05:14.716Z,8.50
2018-03-01T00:07:17.197Z,8.45
2018-03-01T00:09:19.697Z,7.20
2018-03-01T00:11:22.152Z,10.50
2018-03-01T00:13:24.732Z,8.73
2018-03-01T00:15:27.169Z,9.18
2018-03-01T00:17:29.742Z,8.70
2018-03-01T00:19:32.214Z,8.00
2018-03-01T00:21:34.737Z,6.03
2018-03-01T00:23:37.222Z,9.93
2018-03-01T00:25:39.728Z,9.02
2018-03-01T00:27:42.169Z,10.82
2018-03-01T00:29:44.612Z,7.78
2018-03-01T00:31:47.093Z,9.40
2018-03-01T00:33:49.528Z,10.43
2018-03-01T00:35:52.112Z,7.05
2018-03-01T00:37:54.588Z,10.23
2018-03-01T00:39:57.039Z,6.20
2018-03-01T00:41:59.549Z,8.20
2018-03-01T00:44:02.148Z,7.70
2018-03-01T00:46:04.664Z,7.00
2018-03-01T00:48:07.148Z,5.15
2018-03-01T00:50:09.619Z,8.95
2018-03-01T00:52:12.113Z,7.60
2018-03-01T00:54:14.614Z,9.30
2018-03-01T00:56:17.075Z,7.90
2018-03-01T00:58:19.545Z,8.70
2018-03-01T01:00:22.128Z,8.00
2018-03-01T01:02:24.580Z,9.60
2018-03-01T01:04:27.080Z,8.88
2018-03-01T01:06:29.605Z,7.55
2018-03-01T01:08:32.105Z,10.40
2018-03-01T01:10:35.835Z,9.40
2018-03-01T01:12:38.419Z,8.40
2018-03-01T01:14:40.902Z,8.35
2018-03-01T01:16:43.423Z,10.20
2018-03-01T01:18:45.864Z,6.93
2018-03-01T01:20:48.320Z,7.75
2018-03-01T01:22:50.803Z,9.18
2018-03-01T01:24:53.283Z,9.40
2018-03-01T01:26:55.781Z,9.07
2018-03-01T01:28:58.263Z,8.55
2018-03-01T01:31:00.766Z,10.80
2018-03-01T01:33:03.219Z,10.23
2018-03-01T01:35:05.695Z,7.12
2018-03-01T01:37:08.173Z,8.80
2018-03-01T01:39:10.723Z,8.57
2018-03-01T01:41:13.230Z,9.27
2018-03-01T01:43:15.700Z,10.90
2018-03-01T01:45:18.170Z,9.52
2018-03-01T01:47:20.753Z,7.18
2018-03-01T01:49:23.259Z,7.50
2018-03-01T01:51:25.750Z,9.05
2018-03-01T01:53:28.220Z,8.20
2018-03-01T01:55:30.779Z,9.52
2018-03-01T01:57:33.302Z,9.70
2018-03-01T01:59:35.752Z,11.65
2018-03-01T02:01:38.218Z,6.82
2018-03-01T02:03:40.712Z,6.85
2018-03-01T02:05:43.275Z,8.48
2018-03-01T02:07:45.750Z,8.48
2018-03-01T02:09:48.219Z,9.70
2018-03-01T02:11:50.664Z,10.27
2018-03-01T02:13:53.149Z,10.40
2018-03-01T02:15:55.581Z,8.15
2018-03-01T02:17:58.113Z,8.45
2018-03-01T02:20:00.791Z,9.05
2018-03-01T02:22:03.314Z,8.05
2018-03-01T02:24:05.784Z,9.85
2018-03-01T02:26:08.359Z,10.25
2018-03-01T02:28:10.849Z,6.47
2018-03-01T02:30:25.010Z,10.60
2018-03-01T02:32:27.480Z,10.95
2018-03-01T02:34:29.953Z,9.05
2018-03-01T02:36:33.236Z,9.75
2018-03-01T02:38:35.824Z,6.95
2018-03-01T02:40:38.275Z,7.97
2018-03-01T02:42:40.911Z,8.38
2018-03-01T02:44:43.412Z,10.73
2018-03-01T02:46:45.865Z,9.32
2018-03-01T02:48:48.306Z,8.88
2018-03-01T02:50:50.824Z,9.13
2018-03-01T02:52:53.290Z,8.45
2018-03-01T02:54:55.762Z,10.38
2018-03-01T02:56:58.223Z,8.40
2018-03-01T02:59:00.702Z,6.85
2018-03-01T03:01:03.239Z,7.68
2018-03-01T03:03:05.763Z,9.23
2018-03-01T03:05:08.234Z,9.02
2018-03-01T03:07:10.705Z,6.45
2018-03-01T03:09:13.150Z,9.52
2018-03-01T03:11:15.606Z,7.20
2018-03-01T03:13:18.180Z,7.45
2018-03-01T03:15:20.639Z,8.00
2018-03-01T03:17:23.239Z,7.70
2018-03-01T03:19:25.711Z,8.77
2018-03-01T03:21:28.231Z,7.10
2018-03-01T03:23:30.675Z,7.35
2018-03-01T03:25:33.164Z,7.32
2018-03-01T03:27:35.627Z,6.93
2018-03-01T03:29:38.110Z,8.00
2018-03-01T03:31:40.565Z,7.47
2018-03-01T03:33:43.035Z,7.00
2018-03-01T03:35:45.515Z,6.20
2018-03-01T03:37:47.970Z,6.47
2018-03-01T03:39:50.461Z,7.45
2018-03-01T03:41:52.921Z,8.10
2018-03-01T03:43:55.390Z,7.50
2018-03-01T03:45:57.912Z,9.15
2018-03-01T03:48:00.480Z,7.50
2018-03-01T03:50:03.016Z,6.95
2018-03-01T03:52:05.521Z,7.65
2018-03-01T03:54:08.065Z,7.75
2018-03-01T03:56:10.520Z,6.60
2018-03-01T03:58:13.228Z,6.43
2018-03-01T04:00:15.766Z,9.07
2018-03-01T04:02:18.235Z,7.65
2018-03-01T04:04:20.737Z,7.72
2018-03-01T04:06:23.280Z,8.65
2018-03-01T04:08:25.786Z,9.23
2018-03-01T04:10:28.282Z,8.10
2018-03-01T04:12:30.736Z,7.65
2018-03-01T04:14:33.241Z,8.60
2018-03-01T04:16:35.703Z,7.25
2018-03-01T04:18:38.185Z,7.37
2018-03-01T04:20:40.682Z,7.32
2018-03-01T04:22:43.137Z,8.45
2018-03-01T04:24:45.601Z,9.05
2018-03-01T04:26:48.191Z,7.62
2018-03-01T04:28:50.647Z,6.37
2018-03-01T04:30:53.092Z,7.65
2018-03-01T04:32:55.608Z,8.25
2018-03-01T04:34:58.101Z,9.10
2018-03-01T04:37:00.731Z,8.02
2018-03-01T04:39:03.316Z,8.55
2018-03-01T04:41:05.806Z,8.80
2018-03-01T04:43:08.398Z,7.68
2018-03-01T04:45:12.220Z,8.73
2018-03-01T04:47:14.689Z,6.03
2018-03-01T04:49:17.152Z,9.02
2018-03-01T04:51:19.631Z,6.05
2018-03-01T04:53:22.207Z,8.45
2018-03-01T04:55:24.733Z,10.48
2018-03-01T04:57:27.183Z,9.98
2018-03-01T04:59:29.677Z,8.75
2018-03-01T05:01:32.208Z,8.25
2018-03-01T05:03:34.712Z,9.65
2018-03-01T05:05:37.267Z,8.77
2018-03-01T05:07:39.706Z,9.80
2018-03-01T05:09:42.132Z,10.00
2018-03-01T05:11:44.702Z,9.43
2018-03-01T05:13:47.257Z,9.73
2018-03-01T05:15:49.799Z,10.35
2018-03-01T05:17:52.303Z,9.82
2018-03-01T05:19:54.811Z,9.73
2018-03-01T05:21:57.349Z,9.65
2018-03-01T05:24:00.022Z,10.00
2018-03-01T05:26:02.499Z,10.23
2018-03-01T05:28:05.060Z,9.40
2018-03-01T05:30:07.527Z,10.80
2018-03-01T05:32:10.063Z,10.73
2018-03-01T05:34:12.553Z,10.10
2018-03-01T05:36:15.020Z,7.20
2018-03-01T05:38:17.562Z,9.95
2018-03-01T05:40:20.017Z,10.20
2018-03-01T05:42:22.504Z,10.85
2018-03-01T05:44:25.047Z,9.07
2018-03-01T05:46:27.612Z,10.02
2018-03-01T05:48:30.057Z,10.77
2018-03-01T05:50:32.634Z,9.95
2018-03-01T05:52:35.241Z,9.38
2018-03-01T05:54:37.694Z,8.95
2018-03-01T05:56:40.130Z,10.10
2018-03-01T05:58:42.701Z,10.07
2018-03-01T06:00:45.192Z,9.00
2018-03-01T06:02:47.738Z,9.50
2018-03-01T06:04:50.231Z,10.38
2018-03-01T06:06:52.686Z,10.85
2018-03-01T06:08:55.164Z,9.65
2018-03-01T06:10:57.698Z,8.82
2018-03-01T06:13:00.229Z,11.60
2018-03-01T06:15:02.782Z,10.10
2018-03-01T06:17:05.343Z,9.75
2018-03-01T06:19:08.338Z,10.60
2018-03-01T06:21:10.901Z,10.57
2018-03-01T06:23:13.532Z,11.48
2018-03-01T06:25:16.130Z,9.75
2018-03-01T06:27:18.635Z,11.55
2018-03-01T06:29:21.133Z,10.85
2018-03-01T06:31:23.717Z,9.43
2018-03-01T06:33:26.207Z,7.75
2018-03-01T06:35:28.657Z,9.75
2018-03-01T06:37:31.199Z,10.48
2018-03-01T06:39:33.691Z,11.50
2018-03-01T06:41:36.177Z,9.77
2018-03-01T06:43:38.725Z,9.90
2018-03-01T06:45:41.268Z,9.30
2018-03-01T06:47:43.827Z,10.80
2018-03-01T06:49:46.355Z,9.90
2018-03-01T06:51:49.670Z,10.15
2018-03-01T06:53:52.147Z,8.23
2018-03-01T06:55:54.653Z,7.22
2018-03-01T06:57:57.273Z,7.80
2018-03-01T06:59:59.733Z,6.97
2018-03-01T07:02:02.235Z,9.00
2018-03-01T07:04:04.745Z,8.45
2018-03-01T07:06:07.252Z,8.65
2018-03-01T07:08:09.765Z,9.73
2018-03-01T07:10:12.231Z,9.75
2018-03-01T07:12:14.794Z,10.02
2018-03-01T07:14:17.349Z,8.63
2018-03-01T07:16:19.879Z,10.02
2018-03-01T07:18:22.311Z,8.38
2018-03-01T07:20:24.850Z,6.97
2018-03-01T07:22:27.310Z,8.20
2018-03-01T07:24:29.775Z,8.45
2018-03-01T07:26:32.424Z,7.47
2018-03-01T07:28:34.935Z,8.95
2018-03-01T07:30:37.434Z,8.93
2018-03-01T07:32:39.919Z,8.55
2018-03-01T07:34:42.483Z,6.70
2018-03-01T07:36:44.954Z,5.82
2018-03-01T07:38:47.515Z,7.80
2018-03-01T07:40:50.043Z,8.82
2018-03-01T07:42:52.560Z,7.18
2018-03-01T07:44:55.118Z,5.28
2018-03-01T07:46:57.599Z,6.12
2018-03-01T07:49:00.140Z,6.57
2018-03-01T07:51:02.684Z,5.65
2018-03-01T07:53:05.276Z,6.65
2018-03-01T07:55:07.778Z,8.52
2018-03-01T07:57:10.400Z,8.40
2018-03-01T07:59:12.963Z,7.15
2018-03-01T08:01:15.473Z,7.80
2018-03-01T08:03:18.043Z,9.45
2018-03-01T08:05:20.545Z,8.90
2018-03-01T08:07:23.206Z,8.32
2018-03-01T08:09:25.748Z,8.98
2018-03-01T08:11:28.240Z,7.32
2018-03-01T08:13:30.828Z,6.47
2018-03-01T08:15:33.286Z,8.43
2018-03-01T08:17:35.760Z,8.10
2018-03-01T08:19:38.299Z,7.32
2018-03-01T08:21:40.809Z,8.43
2018-03-01T08:23:43.299Z,7.60
2018-03-01T08:25:45.825Z,5.72
2018-03-01T08:27:48.310Z,6.00
2018-03-01T08:29:50.852Z,8.20
2018-03-01T08:31:53.367Z,8.02
2018-03-01T08:33:55.854Z,7.43
2018-03-01T08:35:58.475Z,7.32
2018-03-01T08:38:00.968Z,7.10
2018-03-01T08:40:03.496Z,6.60
2018-03-01T08:42:05.999Z,7.87
2018-03-01T08:44:08.463Z,7.37
2018-03-01T08:46:10.917Z,6.80
2018-03-01T08:48:13.518Z,7.22
2018-03-01T08:50:16.025Z,7.53
2018-03-01T08:52:18.629Z,5.97
2018-03-01T08:54:21.220Z,7.43
2018-03-01T08:56:23.735Z,7.47
2018-03-01T08:58:26.289Z,6.65
2018-03-01T09:00:28.756Z,9.10
2018-03-01T09:02:31.272Z,7.10
2018-03-01T09:04:33.805Z,7.97
2018-03-01T09:06:36.310Z,7.35
2018-03-01T09:08:38.850Z,8.45
2018-03-01T09:10:41.370Z,9.57
2018-03-01T09:12:43.847Z,9.65
2018-03-01T09:14:46.440Z,11.23
2018-03-01T09:16:48.986Z,8.02
2018-03-01T09:18:51.490Z,8.45
2018-03-01T09:20:53.986Z,7.55
2018-03-01T09:22:56.436Z,10.20
2018-03-01T09:24:59.000Z,9.10
2018-03-01T09:27:01.485Z,8.63
2018-03-01T09:29:04.200Z,6.87
2018-03-01T09:31:06.711Z,10.40
2018-03-01T09:33:09.216Z,10.70
2018-03-01T09:35:11.722Z,8.07
2018-03-01T09:37:14.167Z,9.10
2018-03-01T09:39:16.642Z,9.63
2018-03-01T09:41:19.210Z,10.18
2018-03-01T09:43:21.846Z,8.23
2018-03-01T09:45:24.302Z,9.75
2018-03-01T09:47:26.815Z,8.35
2018-03-01T09:49:29.302Z,7.72
2018-03-01T09:51:31.851Z,9.27
2018-03-01T09:53:34.445Z,8.25
2018-03-01T09:55:36.900Z,10.20
2018-03-01T09:57:39.343Z,10.77
2018-03-01T09:59:41.837Z,9.50
2018-03-01T10:01:44.281Z,8.25
2018-03-01T10:03:46.985Z,8.80
2018-03-01T10:05:49.436Z,9.45
2018-03-01T10:07:52.080Z,10.35
2018-03-01T10:09:54.576Z,9.90
2018-03-01T10:11:57.080Z,9.45
2018-03-01T10:13:59.572Z,7.90
2018-03-01T10:16:02.056Z,8.40
2018-03-01T10:18:04.556Z,8.98
2018-03-01T10:20:07.052Z,8.38
2018-03-01T10:22:09.510Z,8.27
2018-03-01T10:24:12.050Z,9.13
2018-03-01T10:26:14.500Z,7.05
2018-03-01T10:28:16.971Z,5.20
2018-03-01T10:30:19.465Z,7.62
2018-03-01T10:32:21.935Z,7.72
2018-03-01T10:34:24.482Z,9.05
2018-03-01T10:36:27.026Z,8.07
2018-03-01T10:38:29.575Z,6.97
2018-03-01T10:40:32.089Z,7.50
2018-03-01T10:42:34.564Z,8.95
2018-03-01T10:44:37.112Z,8.25
2018-03-01T10:46:39.602Z,8.50
2018-03-01T10:48:42.061Z,7.03
2018-03-01T10:50:44.598Z,8.30
2018-03-01T10:52:47.093Z,5.55
2018-03-01T10:54:49.736Z,7.37
2018-03-01T10:56:52.449Z,7.05
2018-03-01T10:58:54.953Z,9.30
2018-03-01T11:00:59.161Z,8.25
2018-03-01T11:03:01.665Z,7.62
2018-03-01T11:05:04.122Z,7.97
2018-03-01T11:07:06.674Z,7.47
2018-03-01T11:09:09.127Z,8.32
2018-03-01T11:11:11.613Z,7.05
2018-03-01T11:13:14.214Z,5.22
2018-03-01T11:15:16.741Z,5.32
2018-03-01T11:17:19.191Z,6.78
2018-03-01T11:19:21.686Z,6.57
2018-03-01T11:21:24.138Z,6.15
2018-03-01T11:23:26.680Z,5.55
2018-03-01T11:25:29.178Z,7.60
2018-03-01T11:27:31.652Z,7.43
2018-03-01T11:29:34.106Z,9.02
2018-03-01T11:31:36.616Z,6.90
2018-03-01T11:33:39.111Z,6.93
2018-03-01T11:35:41.641Z,7.82
2018-03-01T11:37:44.086Z,8.32
2018-03-01T11:39:46.587Z,5.97
2018-03-01T11:41:49.077Z,7.43
2018-03-01T11:43:51.609Z,6.68
2018-03-01T11:45:54.137Z,7.47
2018-03-01T11:47:56.588Z,6.78
2018-03-01T11:49:59.139Z,6.87
2018-03-01T11:52:01.679Z,7.07
2018-03-01T11:54:04.174Z,7.65
2018-03-01T11:56:06.657Z,7.80
2018-03-01T11:58:09.115Z,8.20
2018-03-01T12:00:11.568Z,7.90
2018-03-01T12:02:14.046Z,6.95
2018-03-01T12:04:16.589Z,7.90
2018-03-01T12:06:19.101Z,7.18
2018-03-01T12:08:21.618Z,8.00
2018-03-01T12:10:24.398Z,7.20
2018-03-01T12:12:26.844Z,6.03
2018-03-01T12:14:29.412Z,8.02
2018-03-01T12:16:31.940Z,6.37
2018-03-01T12:18:34.458Z,5.75
2018-03-01T12:20:36.993Z,7.05
2018-03-01T12:22:39.453Z,7.25
2018-03-01T12:24:41.983Z,6.25
2018-03-01T12:26:44.504Z,6.30
2018-03-01T12:28:46.963Z,7.82
2018-03-01T12:30:49.469Z,7.87
2018-03-01T12:32:51.937Z,6.75
2018-03-01T12:34:54.412Z,7.47
2018-03-01T12:36:57.039Z,7.53
2018-03-01T12:38:59.527Z,6.28
2018-03-01T12:41:02.082Z,6.37
2018-03-01T12:43:04.727Z,6.22
2018-03-01T12:45:07.197Z,7.37
2018-03-01T12:47:09.788Z,6.22
2018-03-01T12:49:12.232Z,8.10
2018-03-01T12:51:14.757Z,6.93
2018-03-01T12:53:17.238Z,8.88
2018-03-01T12:55:19.783Z,7.57
2018-03-01T12:57:22.278Z,6.75
2018-03-01T12:59:24.752Z,7.32
2018-03-01T13:01:27.262Z,7.43
2018-03-01T13:03:29.718Z,6.35
2018-03-01T13:05:32.249Z,5.07
2018-03-01T13:07:34.792Z,6.37
2018-03-01T13:09:37.323Z,7.55
2018-03-01T13:11:39.812Z,6.37
2018-03-01T13:13:42.522Z,6.65
2018-03-01T13:15:45.127Z,6.70
2018-03-01T13:17:47.610Z,5.60
2018-03-01T13:19:50.162Z,6.55
2018-03-01T13:21:52.721Z,8.10
2018-03-01T13:23:55.298Z,7.47
2018-03-01T13:25:57.832Z,6.85
2018-03-01T13:28:00.285Z,8.00
2018-03-01T13:30:06.359Z,7.55
2018-03-01T13:32:14.590Z,5.75
2018-03-01T13:34:17.788Z,6.43
2018-03-01T13:36:20.284Z,5.20
2018-03-01T13:38:22.783Z,6.90
2018-03-01T13:40:25.273Z,5.40
2018-03-01T13:42:27.765Z,6.68
2018-03-01T13:44:30.328Z,6.05
2018-03-01T13:46:32.810Z,7.28
2018-03-01T13:48:35.349Z,8.23
2018-03-01T13:50:37.795Z,8.10
2018-03-01T13:52:40.282Z,7.40
2018-03-01T13:54:42.728Z,8.70
2018-03-01T13:56:45.252Z,8.45
2018-03-01T13:58:47.715Z,6.45
2018-03-01T14:00:50.202Z,7.60
2018-03-01T14:02:52.822Z,5.43
2018-03-01T14:04:55.312Z,7.30
2018-03-01T14:07:02.251Z,6.95
2018-03-01T14:09:04.685Z,7.45
2018-03-01T14:11:07.385Z,8.52
2018-03-01T14:13:15.437Z,8.82
2018-03-01T14:15:18.029Z,6.93
2018-03-01T14:17:23.254Z,6.70
2018-03-01T14:22:06.439Z,7.10
2018-03-01T14:24:10.688Z,8.00
2018-03-01T14:26:14.002Z,6.65
2018-03-01T14:28:21.869Z,5.05
2018-03-01T14:30:40.154Z,5.90
2018-03-01T14:32:42.720Z,7.12
2018-03-01T14:34:45.309Z,6.18
2018-03-01T14:36:47.830Z,6.72
2018-03-01T14:38:50.374Z,6.80
2018-03-01T14:40:52.840Z,6.50
2018-03-01T14:42:55.393Z,7.37
2018-03-01T14:44:57.893Z,5.87
2018-03-01T14:47:00.470Z,6.05
2018-03-01T14:49:02.968Z,6.20
2018-03-01T14:51:05.434Z,7.10
2018-03-01T14:53:07.913Z,7.90
2018-03-01T14:55:10.389Z,6.40
2018-03-01T14:57:12.940Z,7.20
2018-03-01T14:59:15.417Z,6.45
2018-03-01T15:01:17.928Z,7.60
2018-03-01T15:03:20.393Z,6.10
2018-03-01T15:05:22.931Z,6.55
2018-03-01T15:07:25.414Z,6.25
2018-03-01T15:09:27.892Z,5.95
2018-03-01T15:11:30.340Z,6.20
2018-03-01T15:13:32.851Z,6.57
2018-03-01T15:15:35.373Z,6.50
2018-03-01T15:17:37.867Z,5.78
2018-03-01T15:19:40.335Z,5.72
2018-03-01T15:21:42.973Z,7.62
2018-03-01T15:23:45.381Z,6.25
2018-03-01T15:25:47.941Z,6.12
2018-03-01T15:27:51.426Z,6.70
2018-03-01T15:29:53.914Z,6.82
2018-03-01T15:31:56.409Z,7.87
2018-03-01T15:33:58.937Z,6.45
2018-03-01T15:36:01.378Z,5.00
2018-03-01T15:38:03.846Z,6.70
2018-03-01T15:40:06.335Z,7.05
2018-03-01T15:42:09.025Z,5.90
2018-03-01T15:44:11.606Z,6.90
2018-03-01T15:46:14.051Z,6.22
2018-03-01T15:48:16.575Z,6.37
2018-03-01T15:50:19.114Z,7.07
2018-03-01T15:52:21.590Z,5.90
2018-03-01T15:54:24.901Z,7.12
2018-03-01T15:56:28.385Z,7.12
2018-03-01T15:58:30.856Z,5.40
2018-03-01T16:00:33.369Z,5.40
2018-03-01T16:02:35.884Z,5.30
2018-03-01T16:04:38.349Z,7.18
2018-03-01T16:06:40.881Z,6.00
2018-03-01T16:08:43.516Z,7.50
2018-03-01T16:10:45.989Z,8.23
2018-03-01T16:12:48.592Z,5.85
2018-03-01T16:14:51.062Z,8.23
2018-03-01T16:16:53.550Z,7.20
2018-03-01T16:18:56.147Z,6.47
2018-03-01T16:20:58.627Z,6.05
2018-03-01T16:23:01.125Z,6.45
2018-03-01T16:25:03.728Z,5.95
2018-03-01T16:27:06.221Z,5.90
2018-03-01T16:29:08.770Z,5.75
2018-03-01T16:31:11.300Z,6.70
2018-03-01T16:33:13.810Z,8.18
2018-03-01T16:35:16.309Z,6.95
2018-03-01T16:37:18.807Z,7.60
2018-03-01T16:39:21.376Z,7.10
2018-03-01T16:41:24.897Z,6.43
2018-03-01T16:43:27.355Z,7.60
2018-03-01T16:45:29.842Z,7.03
2018-03-01T16:47:32.326Z,7.60
2018-03-01T16:49:34.824Z,7.10
2018-03-01T16:51:37.421Z,5.97
2018-03-01T16:53:39.963Z,7.65
2018-03-01T16:55:42.554Z,7.20
2018-03-01T16:57:45.047Z,6.32
2018-03-01T16:59:47.524Z,6.43
2018-03-01T17:01:50.030Z,6.65
2018-03-01T17:03:52.608Z,6.30
2018-03-01T17:05:55.048Z,7.12
2018-03-01T17:07:57.611Z,7.10
2018-03-01T17:10:00.192Z,6.68
2018-03-01T17:12:02.701Z,6.80
2018-03-01T17:14:05.158Z,6.70
2018-03-01T17:16:07.687Z,6.82
2018-03-01T17:18:10.200Z,6.25
2018-03-01T17:20:12.681Z,6.40
2018-03-01T17:22:15.308Z,6.18
2018-03-01T17:24:17.977Z,6.10
2018-03-01T17:26:20.425Z,5.82
2018-03-01T17:28:22.928Z,4.28
2018-03-01T17:30:25.565Z,5.47
2018-03-01T17:32:28.063Z,6.18
2018-03-01T17:34:30.506Z,5.70
2018-03-01T17:36:33.030Z,5.97
2018-03-01T17:38:35.555Z,5.12
2018-03-01T17:40:38.081Z,5.50
2018-03-01T17:42:40.542Z,5.75
2018-03-01T17:44:42.985Z,6.55
2018-03-01T17:46:45.648Z,6.43
2018-03-01T17:48:48.182Z,5.78
2018-03-01T17:50:50.686Z,6.68
2018-03-01T17:52:53.250Z,5.82
2018-03-01T17:54:55.698Z,6.25
2018-03-01T17:56:58.243Z,7.20
2018-03-01T17:59:00.757Z,5.93
2018-03-01T18:01:03.269Z,5.50
2018-03-01T18:03:05.742Z,4.82
2018-03-01T18:05:08.243Z,7.20
2018-03-01T18:07:10.801Z,6.70
2018-03-01T18:09:13.325Z,6.60
2018-03-01T18:11:15.846Z,6.78
2018-03-01T18:13:18.396Z,5.97
2018-03-01T18:15:20.904Z,5.43
2018-03-01T18:17:23.414Z,6.70
2018-03-01T18:19:28.322Z,6.37
2018-03-01T18:21:30.866Z,6.75
2018-03-01T18:23:33.447Z,6.78
2018-03-01T18:25:36.044Z,6.07
2018-03-01T18:27:38.537Z,6.55
2018-03-01T18:29:41.128Z,4.57
2018-03-01T18:31:43.717Z,6.15
2018-03-01T18:33:46.308Z,5.40
2018-03-01T18:35:48.811Z,6.82
2018-03-01T18:37:51.282Z,6.72
2018-03-01T18:39:55.074Z,5.90
2018-03-01T18:41:57.615Z,6.15
2018-03-01T18:44:00.214Z,5.85
2018-03-01T18:46:02.826Z,6.50
2018-03-01T18:48:05.314Z,6.90
2018-03-01T18:50:07.898Z,6.50
2018-03-01T18:52:10.499Z,6.00
2018-03-01T18:54:13.003Z,7.25
2018-03-01T18:56:15.516Z,7.53
2018-03-01T18:58:18.089Z,6.78
2018-03-01T19:00:20.598Z,6.93
2018-03-01T19:02:23.134Z,6.40
2018-03-01T19:04:25.710Z,5.55
2018-03-01T19:06:28.254Z,5.15
2018-03-01T19:08:30.750Z,5.53
2018-03-01T19:10:33.219Z,5.43
2018-03-01T19:12:35.743Z,6.40
2018-03-01T19:14:38.228Z,6.28
2018-03-01T19:16:40.713Z,6.30
2018-03-01T19:18:43.309Z,5.00
2018-03-01T19:20:45.829Z,6.93
2018-03-01T19:22:48.419Z,6.60
2018-03-01T19:24:50.904Z,5.93
2018-03-01T19:26:53.499Z,6.57
2018-03-01T19:28:56.002Z,6.53
2018-03-01T19:30:58.528Z,6.32
2018-03-01T19:33:01.020Z,7.35
2018-03-01T19:35:03.512Z,5.10
2018-03-01T19:37:06.055Z,6.70
2018-03-01T19:39:08.578Z,6.53
2018-03-01T19:41:11.099Z,5.60
2018-03-01T19:43:13.667Z,6.03
2018-03-01T19:45:16.156Z,5.70
2018-03-01T19:47:18.658Z,5.50
2018-03-01T19:49:21.219Z,5.40
2018-03-01T19:51:23.818Z,4.47
2018-03-01T19:53:26.282Z,5.90
2018-03-01T19:55:28.809Z,5.95
2018-03-01T19:57:31.298Z,5.90
2018-03-01T19:59:33.893Z,7.03
2018-03-01T20:01:36.413Z,5.32
2018-03-01T20:03:38.929Z,5.62
2018-03-01T20:05:41.408Z,5.37
2018-03-01T20:07:43.918Z,5.53
2018-03-01T20:09:46.415Z,6.22
2018-03-01T20:11:49.018Z,4.32
2018-03-01T20:13:51.518Z,6.30
2018-03-01T20:15:53.991Z,5.93
2018-03-01T20:17:56.478Z,4.93
2018-03-01T20:19:58.984Z,6.18
2018-03-01T20:22:01.529Z,6.62
2018-03-01T20:24:04.093Z,5.95
2018-03-01T20:26:06.689Z,6.25
2018-03-01T20:28:09.203Z,7.28
2018-03-01T20:30:11.794Z,6.00
2018-03-01T20:32:14.331Z,9.30
2018-03-01T20:34:16.814Z,6.95
2018-03-01T20:36:19.372Z,5.28
2018-03-01T20:38:21.877Z,6.68
2018-03-01T20:40:24.445Z,5.65
2018-03-01T20:42:27.008Z,6.35
2018-03-01T20:44:29.474Z,5.25
2018-03-01T20:46:31.995Z,6.62
2018-03-01T20:48:34.602Z,6.00
2018-03-01T20:50:37.184Z,8.20
2018-03-01T20:52:39.675Z,8.43
2018-03-01T20:54:42.337Z,6.70
2018-03-01T20:56:44.789Z,6.57
2018-03-01T20:58:47.314Z,6.37
2018-03-01T21:00:49.824Z,8.30
2018-03-01T21:02:52.289Z,6.62
2018-03-01T21:04:54.825Z,7.37
2018-03-01T21:06:57.490Z,6.95
2018-03-01T21:08:59.975Z,7.40
2018-03-01T21:11:02.523Z,7.10
2018-03-01T21:13:04.964Z,7.30
2018-03-01T21:15:07.474Z,7.10
2018-03-01T21:17:09.953Z,6.50
2018-03-01T21:19:12.568Z,8.60
2018-03-01T21:21:15.034Z,7.70
2018-03-01T21:23:17.595Z,6.10
2018-03-01T21:25:20.060Z,8.30
2018-03-01T21:27:22.603Z,7.20
2018-03-01T21:29:25.170Z,8.38
2018-03-01T21:31:27.624Z,6.70
2018-03-01T21:33:30.168Z,8.35
2018-03-01T21:35:32.675Z,8.40
2018-03-01T21:37:35.139Z,6.87
2018-03-01T21:39:37.690Z,8.30
2018-03-01T21:41:40.156Z,9.52
2018-03-01T21:43:42.630Z,6.80
2018-03-01T21:45:45.139Z,7.40
2018-03-01T21:47:47.566Z,8.63
2018-03-01T21:49:50.061Z,7.95
2018-03-01T21:51:52.648Z,9.55
2018-03-01T21:53:55.161Z,9.20
2018-03-01T21:55:57.715Z,7.90
2018-03-01T21:58:00.174Z,8.15
2018-03-01T22:00:03.495Z,8.98
2018-03-01T22:02:06.020Z,7.60
2018-03-01T22:04:08.510Z,8.73
2018-03-01T22:06:10.986Z,8.13
2018-03-01T22:08:13.510Z,7.95
2018-03-01T22:10:15.999Z,7.80
2018-03-01T22:12:18.521Z,9.55
2018-03-01T22:14:21.091Z,8.48
2018-03-01T22:16:23.613Z,9.80
2018-03-01T22:18:26.145Z,9.25
2018-03-01T22:20:28.734Z,8.35
2018-03-01T22:22:31.199Z,10.40
2018-03-01T22:24:33.795Z,8.18
2018-03-01T22:26:36.274Z,7.65
2018-03-01T22:28:38.723Z,7.70
2018-03-01T22:30:41.251Z,8.10
2018-03-01T22:32:43.730Z,10.23
2018-03-01T22:34:46.240Z,9.27
2018-03-01T22:36:48.726Z,9.10
2018-03-01T22:38:51.231Z,9.80
2018-03-01T22:40:53.691Z,9.32
2018-03-01T22:42:56.386Z,10.63
2018-03-01T22:44:58.844Z,9.50
2018-03-01T22:47:01.343Z,10.13
2018-03-01T22:49:03.846Z,8.80
2018-03-01T22:51:06.359Z,10.10
2018-03-01T22:53:08.921Z,9.50
2018-03-01T22:55:11.373Z,11.02
2018-03-01T22:57:13.920Z,9.93
2018-03-01T22:59:16.421Z,10.45
2018-03-01T23:01:18.943Z,11.85
2018-03-01T23:03:21.386Z,7.87
2018-03-01T23:05:23.909Z,10.30
2018-03-01T23:07:26.422Z,9.85
2018-03-01T23:09:28.916Z,11.07
2018-03-01T23:11:31.528Z,11.35
2018-03-01T23:13:33.982Z,10.63
2018-03-01T23:15:36.440Z,8.80
2018-03-01T23:17:38.911Z,10.40
2018-03-01T23:19:41.405Z,11.05
2018-03-01T23:21:43.905Z,8.90
2018-03-01T23:23:46.378Z,9.82
2018-03-01T23:25:48.806Z,11.23
2018-03-01T23:27:51.386Z,10.20
2018-03-01T23:29:53.950Z,11.85
2018-03-01T23:31:59.029Z,9.98
2018-03-01T23:34:01.519Z,10.13
2018-03-01T23:36:04.076Z,8.20
2018-03-01T23:38:06.579Z,9.73
2018-03-01T23:40:09.138Z,9.68
2018-03-01T23:42:11.620Z,10.52
2018-03-01T23:44:14.137Z,10.25
2018-03-01T23:46:16.646Z,8.50
2018-03-01T23:48:19.094Z,10.35
2018-03-01T23:50:21.521Z,10.60
2018-03-01T23:52:24.045Z,8.02
2018-03-01T23:54:26.520Z,9.80
2018-03-01T23:56:29.127Z,9.10
2018-03-01T23:58:31.618Z,8.32
